sensor_id;sensor_type;location;lat;lon;timestamp;P1;durP1;ratioP1;P2;durP2;ratioP2
9292;SDS011;69930;48.232;12.384;2024-01-25T00:00:54;12.50;;;3.85;;
9292;SDS011;69930;48.232;12.384;2024-01-25T00:03:21;12.02;;;3.70;;
9292;SDS011;69930;48.232;12.384;2024-01-25T00:05:48;12.73;;;3.72;;
9292;SDS011;69930;48.232;12.384;2024-01-25T00:08:16;10.50;;;3.17;;
9292;SDS011;69930;48.232;12.384;2024-01-25T00:10:43;9.60;;;3.80;;
9292;SDS011;69930;48.232;12.384;2024-01-25T00:13:10;10.75;;;3.50;;
9292;SDS011;69930;48.232;12.384;2024-01-25T00:15:38;10.73;;;3.65;;
9292;SDS011;69930;48.232;12.384;2024-01-25T00:18:06;8.90;;;3.22;;
9292;SDS011;69930;48.232;12.384;2024-01-25T00:20:33;13.05;;;3.90;;
9292;SDS011;69930;48.232;12.384;2024-01-25T00:23:00;14.80;;;4.13;;
9292;SDS011;69930;48.232;12.384;2024-01-25T00:25:27;12.63;;;3.72;;
9292;SDS011;69930;48.232;12.384;2024-01-25T00:27:55;13.50;;;4.03;;
9292;SDS011;69930;48.232;12.384;2024-01-25T00:30:22;13.98;;;4.03;;
9292;SDS011;69930;48.232;12.384;2024-01-25T00:32:50;14.02;;;4.25;;
9292;SDS011;69930;48.232;12.384;2024-01-25T00:35:17;15.38;;;3.90;;
9292;SDS011;69930;48.232;12.384;2024-01-25T00:37:45;15.95;;;3.92;;
9292;SDS011;69930;48.232;12.384;2024-01-25T00:40:13;18.42;;;4.45;;
9292;SDS011;69930;48.232;12.384;2024-01-25T00:42:41;14.88;;;3.95;;
9292;SDS011;69930;48.232;12.384;2024-01-25T00:45:10;13.90;;;4.07;;
9292;SDS011;69930;48.232;12.384;2024-01-25T00:47:38;11.23;;;4.07;;
9292;SDS011;69930;48.232;12.384;2024-01-25T00:50:07;14.82;;;4.85;;
9292;SDS011;69930;48.232;12.384;2024-01-25T00:52:35;17.23;;;4.50;;
9292;SDS011;69930;48.232;12.384;2024-01-25T00:55:03;17.27;;;4.38;;
9292;SDS011;69930;48.232;12.384;2024-01-25T00:57:31;16.38;;;4.32;;
9292;SDS011;69930;48.232;12.384;2024-01-25T00:59:58;18.02;;;4.45;;
9292;SDS011;69930;48.232;12.384;2024-01-25T01:02:26;15.02;;;4.00;;
9292;SDS011;69930;48.232;12.384;2024-01-25T01:04:56;14.95;;;4.43;;
9292;SDS011;69930;48.232;12.384;2024-01-25T01:07:25;15.02;;;4.55;;
9292;SDS011;69930;48.232;12.384;2024-01-25T01:09:53;16.67;;;5.43;;
9292;SDS011;69930;48.232;12.384;2024-01-25T01:12:20;13.50;;;3.97;;
9292;SDS011;69930;48.232;12.384;2024-01-25T01:14:47;14.48;;;4.25;;
9292;SDS011;69930;48.232;12.384;2024-01-25T01:17:14;16.42;;;3.80;;
9292;SDS011;69930;48.232;12.384;2024-01-25T01:19:43;14.63;;;4.10;;
9292;SDS011;69930;48.232;12.384;2024-01-25T01:22:10;13.57;;;4.15;;
9292;SDS011;69930;48.232;12.384;2024-01-25T01:24:39;15.63;;;4.25;;
9292;SDS011;69930;48.232;12.384;2024-01-25T01:27:06;11.43;;;3.65;;
9292;SDS011;69930;48.232;12.384;2024-01-25T01:29:33;12.98;;;4.03;;
9292;SDS011;69930;48.232;12.384;2024-01-25T01:32:00;14.60;;;4.28;;
9292;SDS011;69930;48.232;12.384;2024-01-25T01:34:27;17.45;;;4.57;;
9292;SDS011;69930;48.232;12.384;2024-01-25T01:36:55;15.15;;;3.80;;
9292;SDS011;69930;48.232;12.384;2024-01-25T01:39:22;14.50;;;4.10;;
9292;SDS011;69930;48.232;12.384;2024-01-25T01:41:52;12.98;;;4.32;;
9292;SDS011;69930;48.232;12.384;2024-01-25T01:44:19;12.95;;;4.00;;
9292;SDS011;69930;48.232;12.384;2024-01-25T01:46:46;13.52;;;4.03;;
9292;SDS011;69930;48.232;12.384;2024-01-25T01:49:13;12.73;;;3.83;;
9292;SDS011;69930;48.232;12.384;2024-01-25T01:51:41;16.38;;;4.13;;
9292;SDS011;69930;48.232;12.384;2024-01-25T01:54:09;16.02;;;4.03;;
9292;SDS011;69930;48.232;12.384;2024-01-25T01:56:36;14.32;;;4.20;;
9292;SDS011;69930;48.232;12.384;2024-01-25T01:59:08;15.32;;;4.53;;
9292;SDS011;69930;48.232;12.384;2024-01-25T02:01:36;16.40;;;3.97;;
9292;SDS011;69930;48.232;12.384;2024-01-25T02:04:04;15.32;;;4.38;;
9292;SDS011;69930;48.232;12.384;2024-01-25T02:06:31;14.75;;;4.45;;
9292;SDS011;69930;48.232;12.384;2024-01-25T02:08:58;16.70;;;3.75;;
9292;SDS011;69930;48.232;12.384;2024-01-25T02:11:26;16.55;;;4.68;;
9292;SDS011;69930;48.232;12.384;2024-01-25T02:13:55;15.00;;;3.95;;
9292;SDS011;69930;48.232;12.384;2024-01-25T02:16:23;9.32;;;3.72;;
9292;SDS011;69930;48.232;12.384;2024-01-25T02:18:51;12.77;;;3.50;;
9292;SDS011;69930;48.232;12.384;2024-01-25T02:21:19;14.73;;;4.00;;
9292;SDS011;69930;48.232;12.384;2024-01-25T02:23:48;12.38;;;3.60;;
9292;SDS011;69930;48.232;12.384;2024-01-25T02:26:16;11.85;;;3.35;;
9292;SDS011;69930;48.232;12.384;2024-01-25T02:28:43;11.27;;;3.30;;
9292;SDS011;69930;48.232;12.384;2024-01-25T02:31:10;13.00;;;3.67;;
9292;SDS011;69930;48.232;12.384;2024-01-25T02:33:37;14.43;;;3.40;;
9292;SDS011;69930;48.232;12.384;2024-01-25T02:36:05;12.80;;;3.38;;
9292;SDS011;69930;48.232;12.384;2024-01-25T02:38:32;8.73;;;3.30;;
9292;SDS011;69930;48.232;12.384;2024-01-25T02:41:01;10.13;;;3.53;;
9292;SDS011;69930;48.232;12.384;2024-01-25T02:43:30;11.68;;;3.15;;
9292;SDS011;69930;48.232;12.384;2024-01-25T02:45:57;14.48;;;3.80;;
9292;SDS011;69930;48.232;12.384;2024-01-25T02:48:25;9.40;;;3.45;;
9292;SDS011;69930;48.232;12.384;2024-01-25T02:50:52;11.35;;;2.90;;
9292;SDS011;69930;48.232;12.384;2024-01-25T02:53:19;11.15;;;2.97;;
9292;SDS011;69930;48.232;12.384;2024-01-25T02:55:46;11.98;;;3.33;;
9292;SDS011;69930;48.232;12.384;2024-01-25T02:58:15;11.38;;;3.45;;
9292;SDS011;69930;48.232;12.384;2024-01-25T03:00:42;9.68;;;3.20;;
9292;SDS011;69930;48.232;12.384;2024-01-25T03:03:09;10.88;;;3.40;;
9292;SDS011;69930;48.232;12.384;2024-01-25T03:05:36;10.77;;;3.30;;
9292;SDS011;69930;48.232;12.384;2024-01-25T03:08:03;14.27;;;3.42;;
9292;SDS011;69930;48.232;12.384;2024-01-25T03:10:31;13.38;;;3.65;;
9292;SDS011;69930;48.232;12.384;2024-01-25T03:12:58;14.10;;;3.75;;
9292;SDS011;69930;48.232;12.384;2024-01-25T03:15:27;9.65;;;3.78;;
9292;SDS011;69930;48.232;12.384;2024-01-25T03:17:54;12.30;;;3.97;;
9292;SDS011;69930;48.232;12.384;2024-01-25T03:20:21;13.70;;;3.90;;
9292;SDS011;69930;48.232;12.384;2024-01-25T03:22:48;13.60;;;3.60;;
9292;SDS011;69930;48.232;12.384;2024-01-25T03:25:15;12.10;;;3.47;;
9292;SDS011;69930;48.232;12.384;2024-01-25T03:27:42;11.25;;;3.80;;
9292;SDS011;69930;48.232;12.384;2024-01-25T03:30:10;14.57;;;4.13;;
9292;SDS011;69930;48.232;12.384;2024-01-25T03:32:39;12.10;;;3.42;;
9292;SDS011;69930;48.232;12.384;2024-01-25T03:35:06;11.93;;;3.67;;
9292;SDS011;69930;48.232;12.384;2024-01-25T03:37:34;12.77;;;3.70;;
9292;SDS011;69930;48.232;12.384;2024-01-25T03:40:01;13.95;;;3.78;;
9292;SDS011;69930;48.232;12.384;2024-01-25T03:42:30;12.70;;;3.88;;
9292;SDS011;69930;48.232;12.384;2024-01-25T03:44:57;12.60;;;3.92;;
9292;SDS011;69930;48.232;12.384;2024-01-25T03:47:24;13.98;;;4.28;;
9292;SDS011;69930;48.232;12.384;2024-01-25T03:49:52;13.25;;;4.03;;
9292;SDS011;69930;48.232;12.384;2024-01-25T03:52:20;13.40;;;3.92;;
9292;SDS011;69930;48.232;12.384;2024-01-25T03:54:47;12.20;;;3.47;;
9292;SDS011;69930;48.232;12.384;2024-01-25T03:57:14;12.43;;;3.53;;
9292;SDS011;69930;48.232;12.384;2024-01-25T03:59:41;13.13;;;3.75;;
9292;SDS011;69930;48.232;12.384;2024-01-25T04:02:08;15.30;;;4.35;;
9292;SDS011;69930;48.232;12.384;2024-01-25T04:04:36;11.57;;;3.63;;
9292;SDS011;69930;48.232;12.384;2024-01-25T04:07:04;14.75;;;4.15;;
9292;SDS011;69930;48.232;12.384;2024-01-25T04:09:32;15.13;;;3.92;;
9292;SDS011;69930;48.232;12.384;2024-01-25T04:11:59;13.27;;;4.07;;
9292;SDS011;69930;48.232;12.384;2024-01-25T04:14:26;17.95;;;4.20;;
9292;SDS011;69930;48.232;12.384;2024-01-25T04:16:53;16.58;;;4.38;;
9292;SDS011;69930;48.232;12.384;2024-01-25T04:19:20;11.50;;;3.47;;
9292;SDS011;69930;48.232;12.384;2024-01-25T04:21:47;12.23;;;3.85;;
9292;SDS011;69930;48.232;12.384;2024-01-25T04:24:16;15.00;;;4.35;;
9292;SDS011;69930;48.232;12.384;2024-01-25T04:26:43;14.07;;;4.07;;
9292;SDS011;69930;48.232;12.384;2024-01-25T04:29:10;14.63;;;4.13;;
9292;SDS011;69930;48.232;12.384;2024-01-25T04:31:42;17.92;;;4.82;;
9292;SDS011;69930;48.232;12.384;2024-01-25T04:34:10;15.55;;;4.30;;
9292;SDS011;69930;48.232;12.384;2024-01-25T04:36:37;17.05;;;4.63;;
9292;SDS011;69930;48.232;12.384;2024-01-25T04:39:04;12.85;;;3.97;;
9292;SDS011;69930;48.232;12.384;2024-01-25T04:41:33;17.33;;;4.75;;
9292;SDS011;69930;48.232;12.384;2024-01-25T04:44:00;13.50;;;4.07;;
9292;SDS011;69930;48.232;12.384;2024-01-25T04:46:27;16.55;;;4.30;;
9292;SDS011;69930;48.232;12.384;2024-01-25T04:48:54;16.33;;;4.40;;
9292;SDS011;69930;48.232;12.384;2024-01-25T04:51:21;17.20;;;4.35;;
9292;SDS011;69930;48.232;12.384;2024-01-25T04:53:49;16.15;;;4.45;;
9292;SDS011;69930;48.232;12.384;2024-01-25T04:56:16;13.52;;;4.30;;
9292;SDS011;69930;48.232;12.384;2024-01-25T04:58:44;18.63;;;4.22;;
9292;SDS011;69930;48.232;12.384;2024-01-25T05:01:11;14.60;;;4.38;;
9292;SDS011;69930;48.232;12.384;2024-01-25T05:03:39;15.75;;;4.63;;
9292;SDS011;69930;48.232;12.384;2024-01-25T05:06:06;16.15;;;4.32;;
9292;SDS011;69930;48.232;12.384;2024-01-25T05:08:33;14.85;;;4.32;;
9292;SDS011;69930;48.232;12.384;2024-01-25T05:11:00;15.65;;;4.43;;
9292;SDS011;69930;48.232;12.384;2024-01-25T05:13:28;16.80;;;4.82;;
9292;SDS011;69930;48.232;12.384;2024-01-25T05:15:56;15.77;;;4.68;;
9292;SDS011;69930;48.232;12.384;2024-01-25T05:18:23;17.17;;;4.93;;
9292;SDS011;69930;48.232;12.384;2024-01-25T05:20:51;15.57;;;4.45;;
9292;SDS011;69930;48.232;12.384;2024-01-25T05:23:18;13.13;;;4.03;;
9292;SDS011;69930;48.232;12.384;2024-01-25T05:25:45;16.83;;;4.65;;
9292;SDS011;69930;48.232;12.384;2024-01-25T05:28:13;14.57;;;4.25;;
9292;SDS011;69930;48.232;12.384;2024-01-25T05:30:41;13.07;;;3.90;;
9292;SDS011;69930;48.232;12.384;2024-01-25T05:33:09;15.20;;;3.88;;
9292;SDS011;69930;48.232;12.384;2024-01-25T05:35:36;11.60;;;3.92;;
9292;SDS011;69930;48.232;12.384;2024-01-25T05:38:05;15.77;;;4.35;;
9292;SDS011;69930;48.232;12.384;2024-01-25T05:40:32;14.57;;;4.45;;
9292;SDS011;69930;48.232;12.384;2024-01-25T05:42:59;11.55;;;4.00;;
9292;SDS011;69930;48.232;12.384;2024-01-25T05:45:28;13.63;;;3.92;;
9292;SDS011;69930;48.232;12.384;2024-01-25T05:47:56;16.40;;;4.20;;
9292;SDS011;69930;48.232;12.384;2024-01-25T05:50:24;11.90;;;3.92;;
9292;SDS011;69930;48.232;12.384;2024-01-25T05:52:51;20.23;;;4.65;;
9292;SDS011;69930;48.232;12.384;2024-01-25T05:55:18;14.50;;;4.10;;
9292;SDS011;69930;48.232;12.384;2024-01-25T05:57:46;15.20;;;4.03;;
9292;SDS011;69930;48.232;12.384;2024-01-25T06:00:14;15.55;;;4.75;;
9292;SDS011;69930;48.232;12.384;2024-01-25T06:02:41;15.43;;;4.57;;
9292;SDS011;69930;48.232;12.384;2024-01-25T06:05:09;14.55;;;4.63;;
9292;SDS011;69930;48.232;12.384;2024-01-25T06:07:37;13.75;;;4.13;;
9292;SDS011;69930;48.232;12.384;2024-01-25T06:10:06;14.35;;;4.80;;
9292;SDS011;69930;48.232;12.384;2024-01-25T06:12:37;15.30;;;4.65;;
9292;SDS011;69930;48.232;12.384;2024-01-25T06:15:04;15.27;;;4.15;;
9292;SDS011;69930;48.232;12.384;2024-01-25T06:17:32;16.83;;;4.50;;
9292;SDS011;69930;48.232;12.384;2024-01-25T06:20:00;15.45;;;4.30;;
9292;SDS011;69930;48.232;12.384;2024-01-25T06:22:28;15.05;;;4.45;;
9292;SDS011;69930;48.232;12.384;2024-01-25T06:24:56;17.60;;;4.13;;
9292;SDS011;69930;48.232;12.384;2024-01-25T06:27:23;16.50;;;4.55;;
9292;SDS011;69930;48.232;12.384;2024-01-25T06:29:51;15.32;;;5.18;;
9292;SDS011;69930;48.232;12.384;2024-01-25T06:32:18;16.55;;;4.70;;
9292;SDS011;69930;48.232;12.384;2024-01-25T06:34:45;15.75;;;5.03;;
9292;SDS011;69930;48.232;12.384;2024-01-25T06:37:12;17.58;;;5.63;;
9292;SDS011;69930;48.232;12.384;2024-01-25T06:39:40;17.85;;;5.25;;
9292;SDS011;69930;48.232;12.384;2024-01-25T06:45:12;16.17;;;6.22;;
9292;SDS011;69930;48.232;12.384;2024-01-25T06:47:40;16.13;;;5.93;;
9292;SDS011;69930;48.232;12.384;2024-01-25T06:50:08;16.25;;;5.90;;
9292;SDS011;69930;48.232;12.384;2024-01-25T06:52:35;21.52;;;6.28;;
9292;SDS011;69930;48.232;12.384;2024-01-25T06:55:03;17.75;;;6.32;;
9292;SDS011;69930;48.232;12.384;2024-01-25T06:57:30;16.98;;;6.88;;
9292;SDS011;69930;48.232;12.384;2024-01-25T06:59:57;16.35;;;4.80;;
9292;SDS011;69930;48.232;12.384;2024-01-25T07:02:26;15.32;;;4.55;;
9292;SDS011;69930;48.232;12.384;2024-01-25T07:04:53;17.05;;;4.85;;
9292;SDS011;69930;48.232;12.384;2024-01-25T07:07:21;14.15;;;4.53;;
9292;SDS011;69930;48.232;12.384;2024-01-25T07:09:48;18.85;;;5.40;;
9292;SDS011;69930;48.232;12.384;2024-01-25T07:12:15;17.20;;;4.95;;
9292;SDS011;69930;48.232;12.384;2024-01-25T07:14:42;14.77;;;5.10;;
9292;SDS011;69930;48.232;12.384;2024-01-25T07:17:09;18.10;;;5.38;;
9292;SDS011;69930;48.232;12.384;2024-01-25T07:19:37;15.23;;;4.65;;
9292;SDS011;69930;48.232;12.384;2024-01-25T07:22:05;16.83;;;4.40;;
9292;SDS011;69930;48.232;12.384;2024-01-25T07:30:41;19.23;;;5.28;;
9292;SDS011;69930;48.232;12.384;2024-01-25T08:14:14;14.32;;;4.40;;
9292;SDS011;69930;48.232;12.384;2024-01-25T08:19:59;17.25;;;4.70;;
9292;SDS011;69930;48.232;12.384;2024-01-25T09:10:06;16.10;;;4.88;;
9292;SDS011;69930;48.232;12.384;2024-01-25T09:12:44;17.75;;;4.45;;
9292;SDS011;69930;48.232;12.384;2024-01-25T09:15:25;14.07;;;4.45;;
9292;SDS011;69930;48.232;12.384;2024-01-25T09:17:54;15.75;;;4.47;;
9292;SDS011;69930;48.232;12.384;2024-01-25T09:23:22;15.73;;;4.88;;
9292;SDS011;69930;48.232;12.384;2024-01-25T09:26:03;13.27;;;4.60;;
9292;SDS011;69930;48.232;12.384;2024-01-25T09:28:44;14.95;;;4.45;;
9292;SDS011;69930;48.232;12.384;2024-01-25T09:31:25;15.55;;;4.20;;
9292;SDS011;69930;48.232;12.384;2024-01-25T09:33:52;15.65;;;4.88;;
9292;SDS011;69930;48.232;12.384;2024-01-25T09:39:07;16.52;;;4.68;;
9292;SDS011;69930;48.232;12.384;2024-01-25T09:41:42;14.43;;;4.70;;
9292;SDS011;69930;48.232;12.384;2024-01-25T09:44:10;12.88;;;4.60;;
9292;SDS011;69930;48.232;12.384;2024-01-25T09:46:38;15.60;;;4.43;;
9292;SDS011;69930;48.232;12.384;2024-01-25T09:49:08;16.50;;;5.00;;
9292;SDS011;69930;48.232;12.384;2024-01-25T09:51:36;15.35;;;4.72;;
9292;SDS011;69930;48.232;12.384;2024-01-25T09:54:06;13.13;;;4.60;;
9292;SDS011;69930;48.232;12.384;2024-01-25T10:02:18;14.63;;;3.83;;
9292;SDS011;69930;48.232;12.384;2024-01-25T10:04:48;14.90;;;4.38;;
9292;SDS011;69930;48.232;12.384;2024-01-25T10:07:41;13.70;;;4.47;;
9292;SDS011;69930;48.232;12.384;2024-01-25T10:10:11;16.45;;;4.40;;
9292;SDS011;69930;48.232;12.384;2024-01-25T10:12:39;16.15;;;4.47;;
9292;SDS011;69930;48.232;12.384;2024-01-25T10:15:08;12.82;;;4.65;;
9292;SDS011;69930;48.232;12.384;2024-01-25T10:17:36;17.25;;;5.10;;
9292;SDS011;69930;48.232;12.384;2024-01-25T10:20:04;14.85;;;4.70;;
9292;SDS011;69930;48.232;12.384;2024-01-25T10:25:26;14.23;;;5.47;;
9292;SDS011;69930;48.232;12.384;2024-01-25T10:27:53;15.00;;;5.35;;
9292;SDS011;69930;48.232;12.384;2024-01-25T10:30:21;14.73;;;4.72;;
9292;SDS011;69930;48.232;12.384;2024-01-25T10:32:50;14.35;;;4.50;;
9292;SDS011;69930;48.232;12.384;2024-01-25T10:35:19;14.18;;;4.00;;
9292;SDS011;69930;48.232;12.384;2024-01-25T10:40:44;15.10;;;4.68;;
9292;SDS011;69930;48.232;12.384;2024-01-25T10:43:15;12.82;;;4.65;;
9292;SDS011;69930;48.232;12.384;2024-01-25T10:45:43;16.33;;;4.45;;
9292;SDS011;69930;48.232;12.384;2024-01-25T10:48:12;15.07;;;4.32;;
9292;SDS011;69930;48.232;12.384;2024-01-25T10:50:39;12.07;;;4.05;;
9292;SDS011;69930;48.232;12.384;2024-01-25T10:53:10;14.65;;;4.35;;
9292;SDS011;69930;48.232;12.384;2024-01-25T10:55:38;12.07;;;3.90;;
9292;SDS011;69930;48.232;12.384;2024-01-25T10:58:08;11.90;;;3.85;;
9292;SDS011;69930;48.232;12.384;2024-01-25T11:00:35;13.10;;;4.20;;
9292;SDS011;69930;48.232;12.384;2024-01-25T11:03:03;14.57;;;4.07;;
9292;SDS011;69930;48.232;12.384;2024-01-25T11:05:32;13.02;;;4.72;;
9292;SDS011;69930;48.232;12.384;2024-01-25T11:08:00;16.73;;;4.30;;
9292;SDS011;69930;48.232;12.384;2024-01-25T11:10:27;14.25;;;3.75;;
9292;SDS011;69930;48.232;12.384;2024-01-25T11:15:45;12.23;;;3.83;;
9292;SDS011;69930;48.232;12.384;2024-01-25T11:21:07;11.48;;;3.47;;
9292;SDS011;69930;48.232;12.384;2024-01-25T11:23:35;10.95;;;4.15;;
9292;SDS011;69930;48.232;12.384;2024-01-25T11:26:01;11.65;;;3.95;;
9292;SDS011;69930;48.232;12.384;2024-01-25T11:28:29;8.95;;;3.38;;
9292;SDS011;69930;48.232;12.384;2024-01-25T11:30:58;13.32;;;3.92;;
9292;SDS011;69930;48.232;12.384;2024-01-25T11:33:27;14.23;;;4.38;;
9292;SDS011;69930;48.232;12.384;2024-01-25T11:35:55;11.40;;;4.05;;
9292;SDS011;69930;48.232;12.384;2024-01-25T11:38:22;13.40;;;4.50;;
9292;SDS011;69930;48.232;12.384;2024-01-25T11:40:49;14.48;;;4.53;;
9292;SDS011;69930;48.232;12.384;2024-01-25T11:43:16;11.10;;;4.45;;
9292;SDS011;69930;48.232;12.384;2024-01-25T11:45:44;14.35;;;4.40;;
9292;SDS011;69930;48.232;12.384;2024-01-25T11:54:29;14.98;;;4.40;;
9292;SDS011;69930;48.232;12.384;2024-01-25T11:57:10;15.95;;;4.75;;
9292;SDS011;69930;48.232;12.384;2024-01-25T11:59:39;14.60;;;3.72;;
9292;SDS011;69930;48.232;12.384;2024-01-25T12:02:10;13.45;;;4.65;;
9292;SDS011;69930;48.232;12.384;2024-01-25T12:04:39;13.27;;;4.05;;
9292;SDS011;69930;48.232;12.384;2024-01-25T12:07:06;20.00;;;4.82;;
9292;SDS011;69930;48.232;12.384;2024-01-25T12:09:35;15.13;;;4.25;;
9292;SDS011;69930;48.232;12.384;2024-01-25T12:12:03;14.98;;;4.80;;
9292;SDS011;69930;48.232;12.384;2024-01-25T12:14:31;14.75;;;4.47;;
9292;SDS011;69930;48.232;12.384;2024-01-25T12:17:00;11.07;;;4.13;;
9292;SDS011;69930;48.232;12.384;2024-01-25T12:19:29;12.70;;;4.53;;
9292;SDS011;69930;48.232;12.384;2024-01-25T12:21:56;16.98;;;4.93;;
9292;SDS011;69930;48.232;12.384;2024-01-25T12:24:23;14.63;;;4.40;;
9292;SDS011;69930;48.232;12.384;2024-01-25T12:26:52;15.43;;;4.68;;
9292;SDS011;69930;48.232;12.384;2024-01-25T12:29:20;14.00;;;4.43;;
9292;SDS011;69930;48.232;12.384;2024-01-25T12:31:48;12.90;;;4.22;;
9292;SDS011;69930;48.232;12.384;2024-01-25T12:34:17;14.02;;;4.28;;
9292;SDS011;69930;48.232;12.384;2024-01-25T12:36:44;15.73;;;4.57;;
9292;SDS011;69930;48.232;12.384;2024-01-25T12:39:12;12.80;;;4.28;;
9292;SDS011;69930;48.232;12.384;2024-01-25T12:41:40;13.68;;;4.80;;
9292;SDS011;69930;48.232;12.384;2024-01-25T12:44:09;14.38;;;4.57;;
9292;SDS011;69930;48.232;12.384;2024-01-25T12:46:36;15.30;;;4.45;;
9292;SDS011;69930;48.232;12.384;2024-01-25T12:49:03;12.93;;;3.95;;
9292;SDS011;69930;48.232;12.384;2024-01-25T12:51:30;10.77;;;4.13;;
9292;SDS011;69930;48.232;12.384;2024-01-25T12:56:47;14.25;;;4.72;;
9292;SDS011;69930;48.232;12.384;2024-01-25T13:02:13;12.63;;;4.05;;
9292;SDS011;69930;48.232;12.384;2024-01-25T13:04:40;15.60;;;4.90;;
9292;SDS011;69930;48.232;12.384;2024-01-25T13:07:10;14.75;;;4.70;;
9292;SDS011;69930;48.232;12.384;2024-01-25T13:09:37;11.93;;;4.07;;
9292;SDS011;69930;48.232;12.384;2024-01-25T13:12:04;15.05;;;4.18;;
9292;SDS011;69930;48.232;12.384;2024-01-25T13:14:32;15.60;;;4.32;;
9292;SDS011;69930;48.232;12.384;2024-01-25T13:17:00;17.25;;;7.43;;
9292;SDS011;69930;48.232;12.384;2024-01-25T13:19:28;16.58;;;4.75;;
9292;SDS011;69930;48.232;12.384;2024-01-25T13:21:56;15.57;;;4.15;;
9292;SDS011;69930;48.232;12.384;2024-01-25T13:24:23;13.15;;;4.00;;
9292;SDS011;69930;48.232;12.384;2024-01-25T13:26:51;18.10;;;4.45;;
9292;SDS011;69930;48.232;12.384;2024-01-25T13:29:18;12.43;;;4.30;;
9292;SDS011;69930;48.232;12.384;2024-01-25T13:31:45;14.60;;;4.47;;
9292;SDS011;69930;48.232;12.384;2024-01-25T13:34:13;13.93;;;4.10;;
9292;SDS011;69930;48.232;12.384;2024-01-25T13:36:41;12.68;;;4.40;;
9292;SDS011;69930;48.232;12.384;2024-01-25T13:39:09;12.35;;;3.90;;
9292;SDS011;69930;48.232;12.384;2024-01-25T13:41:37;13.25;;;4.55;;
9292;SDS011;69930;48.232;12.384;2024-01-25T13:44:04;12.25;;;4.03;;
9292;SDS011;69930;48.232;12.384;2024-01-25T13:46:31;12.52;;;4.43;;
9292;SDS011;69930;48.232;12.384;2024-01-25T13:49:00;15.95;;;4.28;;
9292;SDS011;69930;48.232;12.384;2024-01-25T13:51:36;15.65;;;4.55;;
9292;SDS011;69930;48.232;12.384;2024-01-25T13:54:04;13.98;;;4.60;;
9292;SDS011;69930;48.232;12.384;2024-01-25T13:56:32;13.77;;;4.60;;
9292;SDS011;69930;48.232;12.384;2024-01-25T13:58:59;11.82;;;4.10;;
9292;SDS011;69930;48.232;12.384;2024-01-25T14:01:26;13.88;;;4.28;;
9292;SDS011;69930;48.232;12.384;2024-01-25T14:03:53;13.20;;;3.67;;
9292;SDS011;69930;48.232;12.384;2024-01-25T14:06:20;20.10;;;4.70;;
9292;SDS011;69930;48.232;12.384;2024-01-25T14:08:48;14.80;;;4.80;;
9292;SDS011;69930;48.232;12.384;2024-01-25T14:11:17;14.35;;;4.88;;
9292;SDS011;69930;48.232;12.384;2024-01-25T14:13:44;12.15;;;4.00;;
9292;SDS011;69930;48.232;12.384;2024-01-25T14:16:12;15.43;;;4.75;;
9292;SDS011;69930;48.232;12.384;2024-01-25T14:18:42;14.55;;;4.40;;
9292;SDS011;69930;48.232;12.384;2024-01-25T14:21:10;17.40;;;5.22;;
9292;SDS011;69930;48.232;12.384;2024-01-25T14:23:37;12.80;;;4.13;;
9292;SDS011;69930;48.232;12.384;2024-01-25T14:26:04;13.98;;;4.30;;
9292;SDS011;69930;48.232;12.384;2024-01-25T14:28:33;13.52;;;4.47;;
9292;SDS011;69930;48.232;12.384;2024-01-25T14:31:00;14.33;;;4.60;;
9292;SDS011;69930;48.232;12.384;2024-01-25T14:33:27;13.13;;;4.40;;
9292;SDS011;69930;48.232;12.384;2024-01-25T14:35:54;11.55;;;4.32;;
9292;SDS011;69930;48.232;12.384;2024-01-25T14:38:22;17.70;;;4.68;;
9292;SDS011;69930;48.232;12.384;2024-01-25T14:40:49;14.10;;;4.53;;
9292;SDS011;69930;48.232;12.384;2024-01-25T14:43:16;12.80;;;4.70;;
9292;SDS011;69930;48.232;12.384;2024-01-25T14:45:44;13.05;;;4.35;;
9292;SDS011;69930;48.232;12.384;2024-01-25T14:48:11;16.63;;;4.88;;
9292;SDS011;69930;48.232;12.384;2024-01-25T14:50:39;17.83;;;4.95;;
9292;SDS011;69930;48.232;12.384;2024-01-25T14:53:06;14.38;;;4.55;;
9292;SDS011;69930;48.232;12.384;2024-01-25T14:55:33;15.73;;;4.38;;
9292;SDS011;69930;48.232;12.384;2024-01-25T14:58:00;19.42;;;5.20;;
9292;SDS011;69930;48.232;12.384;2024-01-25T15:00:27;13.68;;;4.55;;
9292;SDS011;69930;48.232;12.384;2024-01-25T15:02:56;16.80;;;4.93;;
9292;SDS011;69930;48.232;12.384;2024-01-25T15:05:23;17.65;;;4.63;;
9292;SDS011;69930;48.232;12.384;2024-01-25T15:07:50;17.48;;;4.95;;
9292;SDS011;69930;48.232;12.384;2024-01-25T15:10:17;12.27;;;4.18;;
9292;SDS011;69930;48.232;12.384;2024-01-25T15:12:44;12.95;;;4.60;;
9292;SDS011;69930;48.232;12.384;2024-01-25T15:15:12;13.07;;;4.40;;
9292;SDS011;69930;48.232;12.384;2024-01-25T15:17:39;13.93;;;4.70;;
9292;SDS011;69930;48.232;12.384;2024-01-25T15:20:08;12.60;;;4.60;;
9292;SDS011;69930;48.232;12.384;2024-01-25T15:22:36;10.88;;;3.95;;
9292;SDS011;69930;48.232;12.384;2024-01-25T15:25:04;13.00;;;4.60;;
9292;SDS011;69930;48.232;12.384;2024-01-25T15:27:31;16.05;;;4.65;;
9292;SDS011;69930;48.232;12.384;2024-01-25T15:29:58;11.15;;;3.83;;
9292;SDS011;69930;48.232;12.384;2024-01-25T15:32:25;13.00;;;4.15;;
9292;SDS011;69930;48.232;12.384;2024-01-25T15:34:52;15.23;;;4.85;;
9292;SDS011;69930;48.232;12.384;2024-01-25T15:37:21;14.07;;;4.35;;
9292;SDS011;69930;48.232;12.384;2024-01-25T15:39:48;12.80;;;4.32;;
9292;SDS011;69930;48.232;12.384;2024-01-25T15:42:15;15.98;;;4.57;;
9292;SDS011;69930;48.232;12.384;2024-01-25T15:44:42;14.02;;;4.50;;
9292;SDS011;69930;48.232;12.384;2024-01-25T15:47:10;14.57;;;4.78;;
9292;SDS011;69930;48.232;12.384;2024-01-25T15:49:38;11.20;;;3.88;;
9292;SDS011;69930;48.232;12.384;2024-01-25T15:52:05;15.82;;;4.18;;
9292;SDS011;69930;48.232;12.384;2024-01-25T15:54:33;16.23;;;4.80;;
9292;SDS011;69930;48.232;12.384;2024-01-25T15:57:01;13.63;;;4.72;;
9292;SDS011;69930;48.232;12.384;2024-01-25T15:59:29;13.80;;;4.47;;
9292;SDS011;69930;48.232;12.384;2024-01-25T16:01:56;15.27;;;5.30;;
9292;SDS011;69930;48.232;12.384;2024-01-25T16:04:23;13.35;;;4.65;;
9292;SDS011;69930;48.232;12.384;2024-01-25T16:06:50;14.75;;;4.60;;
9292;SDS011;69930;48.232;12.384;2024-01-25T16:09:17;11.32;;;4.53;;
9292;SDS011;69930;48.232;12.384;2024-01-25T16:11:46;9.45;;;4.25;;
9292;SDS011;69930;48.232;12.384;2024-01-25T16:14:13;12.43;;;4.50;;
9292;SDS011;69930;48.232;12.384;2024-01-25T16:16:40;12.57;;;4.57;;
9292;SDS011;69930;48.232;12.384;2024-01-25T16:19:07;11.27;;;4.32;;
9292;SDS011;69930;48.232;12.384;2024-01-25T16:21:34;15.65;;;4.70;;
9292;SDS011;69930;48.232;12.384;2024-01-25T16:24:01;12.48;;;4.28;;
9292;SDS011;69930;48.232;12.384;2024-01-25T16:26:29;13.90;;;3.63;;
9292;SDS011;69930;48.232;12.384;2024-01-25T16:28:59;12.60;;;4.07;;
9292;SDS011;69930;48.232;12.384;2024-01-25T16:31:26;15.52;;;4.35;;
9292;SDS011;69930;48.232;12.384;2024-01-25T16:33:53;16.17;;;4.78;;
9292;SDS011;69930;48.232;12.384;2024-01-25T16:36:20;11.40;;;4.82;;
9292;SDS011;69930;48.232;12.384;2024-01-25T16:38:47;15.80;;;4.63;;
9292;SDS011;69930;48.232;12.384;2024-01-25T16:41:15;18.13;;;5.20;;
9292;SDS011;69930;48.232;12.384;2024-01-25T16:43:42;13.52;;;4.88;;
9292;SDS011;69930;48.232;12.384;2024-01-25T16:46:11;15.70;;;5.65;;
9292;SDS011;69930;48.232;12.384;2024-01-25T16:48:38;13.85;;;4.63;;
9292;SDS011;69930;48.232;12.384;2024-01-25T16:51:05;14.75;;;4.65;;
9292;SDS011;69930;48.232;12.384;2024-01-25T16:53:32;11.35;;;4.13;;
9292;SDS011;69930;48.232;12.384;2024-01-25T16:55:59;14.98;;;4.78;;